Time;durP1;ratioP1;P1;durP2;ratioP2;P2;SDS_P1;SDS_P2;PMS_P1;PMS_P2;Temp;Humidity;BMP_temperature;BMP_pressure;BME280_temperature;BME280_humidity;BME280_pressure;Samples;Min_cycle;Max_cycle;Signal;HPM_P1;HPM_P2
2023/02/20 00:00:29;;;;;;;62.37;5.17;;;;;;;;;;5053471;28;20476;-63
2023/02/20 00:02:56;;;;;;;63.00;5.50;;;;;;;;;;5053879;28;20964;-63
2023/02/20 00:05:23;;;;;;;61.70;6.10;;;;;;;;;;5053759;28;20468;-63
2023/02/20 00:07:51;;;;;;;64.77;6.40;;;;;;;;;;5053473;28;20941;-63
2023/02/20 00:10:18;;;;;;;64.90;5.70;;;;;;;;;;5053425;28;20444;-62
2023/02/20 00:12:45;;;;;;;63.10;5.40;;;;;;;;;;5053821;28;20455;-63
2023/02/20 00:15:14;;;;;;;66.07;5.83;;;;;;;;;;5053279;28;20472;-63
2023/02/20 00:17:46;;;;;;;64.40;7.00;;;;;;;;;;5053821;28;20444;-63
2023/02/20 00:20:14;;;;;;;62.57;5.40;;;;;;;;;;5053570;28;20484;-63
2023/02/20 00:22:41;;;;;;;60.97;5.80;;;;;;;;;;5053330;28;20452;-63
2023/02/20 00:25:09;;;;;;;63.77;6.13;;;;;;;;;;5053414;28;20495;-63
2023/02/20 00:27:36;;;;;;;62.27;6.07;;;;;;;;;;5053256;28;20448;-62
2023/02/20 00:30:03;;;;;;;60.90;6.07;;;;;;;;;;5053193;28;20795;-63
2023/02/20 00:32:30;;;;;;;62.77;6.00;;;;;;;;;;5053310;28;20452;-62
2023/02/20 00:34:59;;;;;;;63.70;5.50;;;;;;;;;;5052989;28;20468;-62
2023/02/20 00:37:26;;;;;;;61.80;5.87;;;;;;;;;;5053088;28;20459;-63
2023/02/20 00:39:53;;;;;;;65.10;6.00;;;;;;;;;;5052425;28;20488;-62
2023/02/20 00:42:20;;;;;;;62.40;6.13;;;;;;;;;;5053297;28;20463;-62
2023/02/20 00:44:47;;;;;;;63.07;6.57;;;;;;;;;;5053206;28;20468;-63
2023/02/20 00:47:14;;;;;;;62.60;6.23;;;;;;;;;;5053103;28;20448;-63
2023/02/20 00:49:41;;;;;;;62.80;6.60;;;;;;;;;;5052750;28;20440;-64
2023/02/20 00:52:10;;;;;;;64.00;5.77;;;;;;;;;;5052625;28;20449;-63
2023/02/20 00:54:37;;;;;;;64.70;5.50;;;;;;;;;;5052587;28;20474;-63
2023/02/20 00:57:04;;;;;;;62.27;6.40;;;;;;;;;;5052835;28;20448;-63
2023/02/20 00:59:31;;;;;;;63.30;6.77;;;;;;;;;;5052371;28;20484;-62
2023/02/20 01:01:58;;;;;;;63.90;5.93;;;;;;;;;;5052496;28;20963;-62
2023/02/20 01:04:25;;;;;;;64.80;6.03;;;;;;;;;;5052590;28;20471;-63
2023/02/20 01:06:52;;;;;;;61.97;6.13;;;;;;;;;;5052760;28;20448;-63
2023/02/20 01:09:21;;;;;;;64.97;7.40;;;;;;;;;;5052113;28;20968;-63
2023/02/20 01:11:48;;;;;;;61.00;5.87;;;;;;;;;;5052733;28;20459;-63
2023/02/20 01:14:15;;;;;;;65.27;5.83;;;;;;;;;;5052448;28;20975;-62
2023/02/20 01:16:46;;;;;;;62.03;5.47;;;;;;;;;;5052547;28;20467;-62
2023/02/20 01:19:13;;;;;;;60.97;5.80;;;;;;;;;;5051970;28;20838;-62
2023/02/20 01:21:40;;;;;;;65.60;6.00;;;;;;;;;;5052475;28;20961;-63
2023/02/20 01:24:07;;;;;;;61.23;5.70;;;;;;;;;;5052190;28;20464;-63
2023/02/20 01:26:36;;;;;;;62.10;6.80;;;;;;;;;;5052134;28;20937;-62
2023/02/20 01:29:03;;;;;;;65.53;5.80;;;;;;;;;;5051882;28;20461;-63
2023/02/20 01:31:30;;;;;;;62.23;6.33;;;;;;;;;;5052624;28;20617;-63
2023/02/20 01:33:57;;;;;;;65.30;6.00;;;;;;;;;;5052249;28;20444;-63
2023/02/20 01:36:26;;;;;;;63.37;5.67;;;;;;;;;;5052278;28;20455;-63
2023/02/20 01:38:53;;;;;;;64.80;6.03;;;;;;;;;;5051543;28;20542;-63
2023/02/20 01:41:20;;;;;;;63.17;5.97;;;;;;;;;;5051962;28;20661;-61
2023/02/20 01:43:49;;;;;;;64.50;5.40;;;;;;;;;;5051783;28;20448;-63
2023/02/20 01:46:34;;;;;;;61.43;5.57;;;;;;;;;;5051898;28;20839;-62
2023/02/20 01:49:02;;;;;;;63.37;6.23;;;;;;;;;;5051376;28;20448;-62
2023/02/20 01:51:32;;;;;;;64.13;6.00;;;;;;;;;;5051992;28;20449;-62
2023/02/20 01:53:59;;;;;;;60.00;5.30;;;;;;;;;;5052006;28;20523;-63
2023/02/20 01:56:27;;;;;;;63.80;6.37;;;;;;;;;;5051852;28;20979;-62
2023/02/20 01:58:55;;;;;;;61.10;6.37;;;;;;;;;;5051468;28;20963;-62
2023/02/20 02:01:22;;;;;;;63.00;5.90;;;;;;;;;;5051732;28;20507;-62
2023/02/20 02:03:53;;;;;;;71.30;6.90;;;;;;;;;;5052908;28;20455;-62
2023/02/20 02:06:20;;;;;;;66.30;6.10;;;;;;;;;;5056116;28;20478;-63
2023/02/20 02:08:47;;;;;;;61.60;6.10;;;;;;;;;;5055452;28;20456;-63
2023/02/20 02:11:16;;;;;;;62.67;6.30;;;;;;;;;;5055715;28;20940;-63
2023/02/20 02:13:43;;;;;;;64.37;6.00;;;;;;;;;;5055650;28;20448;-63
2023/02/20 02:16:19;;;;;;;63.23;5.47;;;;;;;;;;5055948;28;20490;-63
2023/02/20 02:18:51;;;;;;;64.30;5.77;;;;;;;;;;5055532;28;20459;-62
2023/02/20 02:21:34;;;;;;;62.27;5.37;;;;;;;;;;5055547;28;20483;-62
2023/02/20 02:24:19;;;;;;;62.83;6.73;;;;;;;;;;5055069;28;20464;-63
2023/02/20 02:26:59;;;;;;;60.10;5.10;;;;;;;;;;5055806;28;20443;-63
2023/02/20 02:29:36;;;;;;;61.40;5.60;;;;;;;;;;5055075;28;20475;-63
2023/02/20 02:32:24;;;;;;;60.93;5.70;;;;;;;;;;5055446;28;20439;-62
2023/02/20 02:34:59;;;;;;;62.80;5.50;;;;;;;;;;5050361;28;20848;-62
2023/02/20 02:37:29;;;;;;;62.10;5.17;;;;;;;;;;5055141;28;20444;-63
2023/02/20 02:40:00;;;;;;;62.10;5.43;;;;;;;;;;5054693;28;20495;-60
2023/02/20 02:42:29;;;;;;;61.37;5.73;;;;;;;;;;5055075;28;20471;-62
2023/02/20 02:44:58;;;;;;;62.50;5.65;;;;;;;;;;5054766;28;20476;-63
2023/02/20 02:47:28;;;;;;;62.00;5.72;;;;;;;;;;5055178;28;20209;-62
2023/02/20 02:49:57;;;;;;;60.47;5.63;;;;;;;;;;5054748;28;20578;-63
2023/02/20 02:52:45;;;;;;;61.80;6.13;;;;;;;;;;5055066;28;20455;-62
2023/02/20 02:55:14;;;;;;;62.63;5.43;;;;;;;;;;5052998;28;20566;-62
2023/02/20 02:57:42;;;;;;;66.25;6.10;;;;;;;;;;5054704;28;20460;-62
2023/02/20 03:00:10;;;;;;;61.97;5.83;;;;;;;;;;5054361;28;20252;-62
2023/02/20 03:02:41;;;;;;;64.30;5.90;;;;;;;;;;5054750;28;20462;-62
2023/02/20 03:05:10;;;;;;;62.90;6.50;;;;;;;;;;5054861;28;20460;-63
2023/02/20 03:07:39;;;;;;;68.70;15.33;;;;;;;;;;5055230;28;20812;-63
2023/02/20 03:10:08;;;;;;;64.23;7.40;;;;;;;;;;5054600;28;20448;-63
2023/02/20 03:12:38;;;;;;;66.38;8.52;;;;;;;;;;5054595;28;20460;-63
2023/02/20 03:17:56;;;;;;;68.05;12.07;;;;;;;;;;5054488;28;20431;-62
2023/02/20 03:20:23;;;;;;;63.33;9.60;;;;;;;;;;5054526;28;20574;-62
2023/02/20 03:22:52;;;;;;;75.97;11.30;;;;;;;;;;5054361;28;20216;-63
2023/02/20 03:25:21;;;;;;;71.57;11.98;;;;;;;;;;5054371;28;20813;-60
2023/02/20 03:27:52;;;;;;;70.32;10.48;;;;;;;;;;5054259;28;20202;-57
2023/02/20 03:30:21;;;;;;;69.68;8.68;;;;;;;;;;5053993;28;20198;-60
2023/02/20 03:43:54;;;;;;;65.90;6.90;;;;;;;;;;5054279;28;20768;-62
2023/02/20 03:46:23;;;;;;;62.88;6.80;;;;;;;;;;5054209;28;20475;-62
2023/02/20 03:48:53;;;;;;;61.67;6.10;;;;;;;;;;5053448;28;20213;-63
2023/02/20 03:51:20;;;;;;;63.58;7.53;;;;;;;;;;5054208;28;20206;-63
2023/02/20 03:53:47;;;;;;;65.82;8.90;;;;;;;;;;5054414;28;20206;-63
2023/02/20 03:56:16;;;;;;;64.95;7.93;;;;;;;;;;5053949;28;20226;-62
2023/02/20 03:58:47;;;;;;;69.78;8.65;;;;;;;;;;5053430;28;20214;-63
2023/02/20 04:01:18;;;;;;;66.17;8.13;;;;;;;;;;5053883;28;20604;-62
2023/02/20 04:03:47;;;;;;;62.78;7.95;;;;;;;;;;5053940;28;20965;-63
2023/02/20 04:06:15;;;;;;;64.37;7.60;;;;;;;;;;5053800;28;20276;-62
2023/02/20 04:08:45;;;;;;;69.18;7.40;;;;;;;;;;5053411;28;20448;-62
2023/02/20 04:11:15;;;;;;;66.95;7.35;;;;;;;;;;5053748;28;20201;-62
2023/02/20 04:13:42;;;;;;;64.50;7.10;;;;;;;;;;5053671;28;20556;-60
2023/02/20 04:16:10;;;;;;;64.20;6.80;;;;;;;;;;5053435;28;20476;-59
2023/02/20 04:18:38;;;;;;;61.25;6.72;;;;;;;;;;5053181;28;20206;-62
2023/02/20 04:21:10;;;;;;;61.97;6.05;;;;;;;;;;5053169;28;20229;-62
2023/02/20 04:23:40;;;;;;;64.00;5.80;;;;;;;;;;5053250;28;20209;-62
2023/02/20 04:26:10;;;;;;;63.63;7.07;;;;;;;;;;5052648;28;20709;-62
2023/02/20 04:28:37;;;;;;;65.30;7.15;;;;;;;;;;5052780;28;20214;-62
2023/02/20 04:31:04;;;;;;;62.35;6.35;;;;;;;;;;5053078;28;20206;-61
2023/02/20 04:33:31;;;;;;;69.15;7.20;;;;;;;;;;5053223;28;20228;-62
2023/02/20 04:36:01;;;;;;;63.22;6.15;;;;;;;;;;5052907;28;20222;-60
2023/02/20 04:38:28;;;;;;;65.10;6.38;;;;;;;;;;5052626;28;20252;-60
2023/02/20 04:40:55;;;;;;;67.40;6.75;;;;;;;;;;5052740;28;20240;-60
2023/02/20 04:43:22;;;;;;;67.28;6.45;;;;;;;;;;5052683;28;20752;-60
2023/02/20 04:45:49;;;;;;;65.68;6.60;;;;;;;;;;5052868;28;20225;-60
2023/02/20 04:48:17;;;;;;;64.93;6.85;;;;;;;;;;5052572;28;20209;-60
2023/02/20 04:50:44;;;;;;;66.05;7.50;;;;;;;;;;5052266;28;20242;-60
2023/02/20 04:53:12;;;;;;;65.30;8.18;;;;;;;;;;5052551;28;20595;-60
2023/02/20 04:55:39;;;;;;;65.18;6.72;;;;;;;;;;5052371;28;20234;-58
2023/02/20 04:58:06;;;;;;;63.55;6.80;;;;;;;;;;5052439;28;20205;-60
2023/02/20 05:00:33;;;;;;;64.50;7.55;;;;;;;;;;5051919;28;20210;-59
2023/02/20 05:03:00;;;;;;;72.95;7.38;;;;;;;;;;5052408;28;20587;-63
2023/02/20 05:05:29;;;;;;;64.22;6.72;;;;;;;;;;5052314;28;20222;-60
2023/02/20 05:07:57;;;;;;;63.97;7.20;;;;;;;;;;5052143;28;20206;-59
2023/02/20 05:10:26;;;;;;;65.88;7.80;;;;;;;;;;5052101;28;20201;-59
2023/02/20 05:12:54;;;;;;;65.35;7.88;;;;;;;;;;5052304;28;20213;-60
2023/02/20 05:15:21;;;;;;;67.70;7.68;;;;;;;;;;5052122;28;20225;-60
2023/02/20 05:17:48;;;;;;;63.85;7.10;;;;;;;;;;5052188;28;20206;-60
2023/02/20 05:20:16;;;;;;;65.00;7.82;;;;;;;;;;5051734;28;20208;-59
2023/02/20 05:22:42;;;;;;;65.18;7.75;;;;;;;;;;5052074;28;20229;-61
2023/02/20 05:25:09;;;;;;;67.60;6.80;;;;;;;;;;5052150;28;20230;-61
2023/02/20 05:27:37;;;;;;;65.88;8.18;;;;;;;;;;5052110;28;20208;-61
2023/02/20 05:30:05;;;;;;;68.18;8.95;;;;;;;;;;5051800;28;20587;-60
2023/02/20 05:32:32;;;;;;;70.57;10.30;;;;;;;;;;5051886;28;20212;-60
2023/02/20 05:34:59;;;;;;;71.32;7.03;;;;;;;;;;5051874;28;20226;-61
2023/02/20 05:37:28;;;;;;;64.43;7.28;;;;;;;;;;5051759;28;20671;-59
2023/02/20 05:39:55;;;;;;;68.97;8.07;;;;;;;;;;5051024;28;20569;-61
2023/02/20 05:42:22;;;;;;;67.18;7.75;;;;;;;;;;5051782;28;20709;-61
2023/02/20 05:44:51;;;;;;;65.63;7.78;;;;;;;;;;5051655;28;20237;-59
2023/02/20 05:47:18;;;;;;;65.82;7.93;;;;;;;;;;5051793;28;20206;-61
2023/02/20 05:49:45;;;;;;;64.60;6.75;;;;;;;;;;5051269;28;20213;-60
2023/02/20 05:52:12;;;;;;;66.55;8.65;;;;;;;;;;5051852;28;20198;-60
2023/02/20 05:54:40;;;;;;;67.50;6.95;;;;;;;;;;5051574;28;20725;-61
2023/02/20 05:57:07;;;;;;;70.32;8.27;;;;;;;;;;5051758;28;20205;-60
2023/02/20 05:59:34;;;;;;;63.13;6.90;;;;;;;;;;5051172;28;20220;-59
2023/02/20 06:02:03;;;;;;;64.00;8.13;;;;;;;;;;5051359;28;20225;-61
2023/02/20 06:04:30;;;;;;;67.10;7.43;;;;;;;;;;5051628;28;20226;-61
2023/02/20 06:06:57;;;;;;;64.18;7.93;;;;;;;;;;5051482;28;20205;-60
2023/02/20 06:09:24;;;;;;;67.78;7.50;;;;;;;;;;5051517;28;20206;-60
2023/02/20 06:11:52;;;;;;;70.30;7.70;;;;;;;;;;5051850;28;20204;-60
2023/02/20 06:14:20;;;;;;;67.47;8.43;;;;;;;;;;5051289;28;20756;-61
2023/02/20 06:16:47;;;;;;;70.32;7.95;;;;;;;;;;5051630;28;20216;-61
2023/02/20 06:19:21;;;;;;;67.68;8.02;;;;;;;;;;5051476;28;20210;-62
2023/02/20 06:21:48;;;;;;;64.15;7.88;;;;;;;;;;5051476;28;20222;-62
2023/02/20 06:24:15;;;;;;;64.78;7.70;;;;;;;;;;5051258;28;20213;-62
2023/02/20 06:26:43;;;;;;;65.80;8.52;;;;;;;;;;5051859;28;20210;-62
2023/02/20 06:29:10;;;;;;;68.72;7.75;;;;;;;;;;5050834;28;20209;-62
2023/02/20 06:31:37;;;;;;;62.83;7.63;;;;;;;;;;5051560;28;20584;-61
2023/02/20 06:34:04;;;;;;;63.10;7.45;;;;;;;;;;5051328;28;20347;-62
2023/02/20 06:36:36;;;;;;;65.60;8.07;;;;;;;;;;5051828;28;20230;-62
2023/02/20 06:39:03;;;;;;;67.30;9.00;;;;;;;;;;5051056;28;20206;-61
2023/02/20 06:41:30;;;;;;;66.03;8.70;;;;;;;;;;5051233;28;20588;-61
2023/02/20 06:43:57;;;;;;;63.83;7.88;;;;;;;;;;5051361;28;20202;-62
2023/02/20 06:46:24;;;;;;;69.50;8.05;;;;;;;;;;5051492;28;20206;-62
2023/02/20 06:48:53;;;;;;;68.68;8.40;;;;;;;;;;5051234;28;20206;-62
2023/02/20 06:51:20;;;;;;;70.07;10.77;;;;;;;;;;5054625;28;20674;-62
2023/02/20 06:53:49;;;;;;;67.57;8.45;;;;;;;;;;5055183;28;20586;-62
2023/02/20 06:56:18;;;;;;;64.63;7.70;;;;;;;;;;5055068;28;20729;-60
2023/02/20 06:58:46;;;;;;;67.43;8.55;;;;;;;;;;5054511;28;20621;-59
2023/02/20 07:01:13;;;;;;;65.63;8.10;;;;;;;;;;5054687;28;20299;-62
2023/02/20 07:03:40;;;;;;;68.97;7.20;;;;;;;;;;5054587;28;20755;-61
2023/02/20 07:06:08;;;;;;;66.82;7.80;;;;;;;;;;5054561;28;20563;-61
2023/02/20 07:08:35;;;;;;;63.47;7.05;;;;;;;;;;5054044;28;20202;-61
2023/02/20 07:11:03;;;;;;;64.35;6.65;;;;;;;;;;5054563;28;20213;-61
2023/02/20 07:13:30;;;;;;;66.22;7.50;;;;;;;;;;5054348;28;20293;-61
2023/02/20 07:15:57;;;;;;;67.80;7.90;;;;;;;;;;5054498;28;20226;-60
2023/02/20 07:18:26;;;;;;;62.67;7.00;;;;;;;;;;5054313;28;20448;-61
2023/02/20 07:20:53;;;;;;;65.23;6.97;;;;;;;;;;5054191;28;20867;-61
2023/02/20 07:23:20;;;;;;;64.10;6.73;;;;;;;;;;5053907;28;20527;-59
2023/02/20 07:25:48;;;;;;;61.80;6.10;;;;;;;;;;5054368;28;20478;-61
2023/02/20 07:28:17;;;;;;;63.03;6.10;;;;;;;;;;5054372;28;20210;-61
2023/02/20 07:30:45;;;;;;;64.70;6.47;;;;;;;;;;5053975;28;20937;-62
2023/02/20 07:33:12;;;;;;;67.43;6.93;;;;;;;;;;5054091;28;20547;-61
2023/02/20 07:35:39;;;;;;;63.90;5.30;;;;;;;;;;5053855;28;20464;-59
2023/02/20 07:38:07;;;;;;;61.70;5.20;;;;;;;;;;5054039;28;20463;-61
2023/02/20 07:40:34;;;;;;;64.67;6.00;;;;;;;;;;5053824;28;20482;-60
2023/02/20 07:43:01;;;;;;;63.63;6.00;;;;;;;;;;5053955;28;20495;-62
2023/02/20 07:45:30;;;;;;;65.80;6.30;;;;;;;;;;5053801;28;20468;-61
2023/02/20 07:47:57;;;;;;;66.20;7.27;;;;;;;;;;5053739;28;20210;-62
2023/02/20 07:50:24;;;;;;;62.60;6.17;;;;;;;;;;5053318;28;20941;-61
2023/02/20 07:52:51;;;;;;;61.70;5.72;;;;;;;;;;5053766;28;20539;-62
2023/02/20 07:55:18;;;;;;;64.60;5.80;;;;;;;;;;5053447;28;20228;-62
2023/02/20 07:57:47;;;;;;;64.93;5.90;;;;;;;;;;5053573;28;20594;-62
2023/02/20 08:00:15;;;;;;;62.57;6.00;;;;;;;;;;5053495;28;20472;-62
2023/02/20 08:02:43;;;;;;;61.10;5.80;;;;;;;;;;5052865;28;20499;-62
2023/02/20 08:05:10;;;;;;;68.40;5.87;;;;;;;;;;5053419;28;20468;-61
2023/02/20 08:07:38;;;;;;;64.43;5.87;;;;;;;;;;5053969;28;20490;-62
2023/02/20 08:10:06;;;;;;;66.03;6.67;;;;;;;;;;5053886;28;20444;-62
2023/02/20 08:12:33;;;;;;;64.00;5.83;;;;;;;;;;5054078;28;20449;-62
2023/02/20 08:15:00;;;;;;;62.67;5.37;;;;;;;;;;5053933;28;21059;-63
2023/02/20 08:17:27;;;;;;;61.13;5.23;;;;;;;;;;5053727;28;20448;-62
2023/02/20 08:19:56;;;;;;;64.53;6.20;;;;;;;;;;5053180;28;20449;-63
2023/02/20 08:22:23;;;;;;;62.50;5.80;;;;;;;;;;5053320;28;20850;-64
2023/02/20 08:24:50;;;;;;;63.10;5.27;;;;;;;;;;5053095;28;20476;-63
2023/02/20 08:27:17;;;;;;;63.67;5.07;;;;;;;;;;5052985;28;20448;-62
2023/02/20 08:29:45;;;;;;;66.13;5.63;;;;;;;;;;5052671;28;20463;-62
2023/02/20 08:32:12;;;;;;;60.30;4.73;;;;;;;;;;5053010;28;20937;-64
2023/02/20 08:34:40;;;;;;;66.10;6.07;;;;;;;;;;5053102;28;20474;-62
2023/02/20 08:37:08;;;;;;;66.10;5.00;;;;;;;;;;5053320;28;20445;-62
2023/02/20 08:39:36;;;;;;;62.03;4.80;;;;;;;;;;5052872;28;20452;-66
2023/02/20 08:42:03;;;;;;;63.00;5.13;;;;;;;;;;5052943;28;20484;-62
2023/02/20 08:44:30;;;;;;;63.13;5.03;;;;;;;;;;5053180;28;20859;-63
2023/02/20 08:46:57;;;;;;;59.93;4.70;;;;;;;;;;5053221;28;20441;-63
2023/02/20 08:49:24;;;;;;;66.30;5.63;;;;;;;;;;5052393;28;20945;-63
2023/02/20 08:51:54;;;;;;;61.50;5.23;;;;;;;;;;5052846;28;20440;-64
2023/02/20 08:54:22;;;;;;;62.10;4.60;;;;;;;;;;5052574;28;20815;-63
2023/02/20 08:56:49;;;;;;;61.90;5.13;;;;;;;;;;5052411;28;20436;-62
2023/02/20 08:59:16;;;;;;;61.47;5.30;;;;;;;;;;5052067;28;20467;-63
2023/02/20 09:01:43;;;;;;;62.40;5.57;;;;;;;;;;5052629;28;20832;-63
2023/02/20 09:04:11;;;;;;;61.57;4.80;;;;;;;;;;5052879;28;20453;-63
2023/02/20 09:06:38;;;;;;;65.63;5.27;;;;;;;;;;5052740;28;20448;-63
2023/02/20 09:09:05;;;;;;;61.67;5.30;;;;;;;;;;5052348;28;20456;-63
2023/02/20 09:11:34;;;;;;;61.33;5.30;;;;;;;;;;5052364;28;20459;-63
2023/02/20 09:14:02;;;;;;;60.70;4.23;;;;;;;;;;5052612;28;20452;-62
2023/02/20 09:16:29;;;;;;;64.63;5.87;;;;;;;;;;5052642;28;20952;-63
2023/02/20 09:18:56;;;;;;;66.23;5.20;;;;;;;;;;5052190;28;20444;-64
2023/02/20 09:21:23;;;;;;;60.50;4.50;;;;;;;;;;5052589;28;20448;-63
2023/02/20 09:23:50;;;;;;;64.63;4.40;;;;;;;;;;5052187;28;20484;-63
2023/02/20 09:26:17;;;;;;;63.67;4.80;;;;;;;;;;5051759;28;20472;-62
2023/02/20 09:28:45;;;;;;;62.40;4.67;;;;;;;;;;5051460;28;20948;-61
2023/02/20 09:31:13;;;;;;;62.80;5.50;;;;;;;;;;5051946;28;20452;-63
2023/02/20 09:33:40;;;;;;;62.87;5.20;;;;;;;;;;5052262;28;20445;-62
2023/02/20 09:36:07;;;;;;;61.37;4.80;;;;;;;;;;5051877;28;20840;-62
2023/02/20 09:38:34;;;;;;;66.70;4.90;;;;;;;;;;5051561;28;21017;-64
2023/02/20 09:41:01;;;;;;;62.80;4.73;;;;;;;;;;5052256;28;20478;-61
2023/02/20 09:43:39;;;;;;;63.57;4.60;;;;;;;;;;5051850;28;20495;-61
2023/02/20 09:46:10;;;;;;;61.60;4.50;;;;;;;;;;5052071;28;20468;-61
2023/02/20 09:48:47;;;;;;;63.27;4.60;;;;;;;;;;5051425;28;20478;-61
2023/02/20 09:51:16;;;;;;;62.27;4.30;;;;;;;;;;5051537;28;20456;-61
2023/02/20 09:53:50;;;;;;;65.60;4.50;;;;;;;;;;5051807;28;20820;-61
2023/02/20 09:56:19;;;;;;;63.87;4.70;;;;;;;;;;5051808;28;20472;-61
2023/02/20 09:58:49;;;;;;;63.73;4.33;;;;;;;;;;5051318;28;20448;-62
2023/02/20 10:01:21;;;;;;;64.40;4.80;;;;;;;;;;5051646;28;20823;-62
2023/02/20 10:03:53;;;;;;;60.90;4.83;;;;;;;;;;5051442;28;20921;-61
2023/02/20 10:06:22;;;;;;;61.87;4.50;;;;;;;;;;5051663;28;20477;-61
2023/02/20 10:08:49;;;;;;;61.80;4.20;;;;;;;;;;5051246;28;20448;-62
2023/02/20 10:11:18;;;;;;;61.97;4.93;;;;;;;;;;5051536;28;20553;-62
2023/02/20 10:13:52;;;;;;;60.30;4.83;;;;;;;;;;5051520;28;20824;-61
2023/02/20 10:16:26;;;;;;;61.40;4.13;;;;;;;;;;5051309;28;20584;-61
2023/02/20 10:18:57;;;;;;;61.90;4.10;;;;;;;;;;5051280;28;20451;-64
2023/02/20 10:21:29;;;;;;;59.10;4.00;;;;;;;;;;5051955;28;20448;-64
2023/02/20 10:24:02;;;;;;;60.60;3.83;;;14.20;99.90;;;;;;5051871;28;20492;-64
2023/02/20 10:26:33;;;;;;;60.27;3.50;;;16.60;99.90;;;;;;5055750;28;20456;-63
2023/02/20 10:29:14;;;;;;;59.87;3.63;;;16.40;99.90;;;;;;5055875;28;20873;-63
2023/02/20 10:31:47;;;;;;;60.77;4.10;;;15.10;99.90;;;;;;5055503;28;20462;-63
2023/02/20 10:34:21;;;;;;;63.50;4.50;;;15.30;99.90;;;;;;5056078;28;20436;-63
2023/02/20 10:36:52;;;;;;;63.87;4.23;;;15.40;99.90;;;;;;5055791;28;20813;-63
2023/02/20 10:39:21;;;;;;;61.80;4.43;;;15.80;99.90;;;;;;5054933;28;20452;-63
2023/02/20 10:41:53;;;;;;;59.30;3.70;;;17.20;99.90;;;;;;5055469;28;20452;-63
2023/02/20 10:44:25;;;;;;;61.60;3.57;;;17.10;99.90;;;;;;5055117;28;20488;-61
2023/02/20 10:46:59;;;;;;;60.60;3.73;;;16.90;99.90;;;;;;5055036;28;20455;-63
2023/02/20 10:49:36;;;;;;;59.87;3.80;;;15.90;99.90;;;;;;5055270;28;20458;-63
2023/02/20 10:52:07;;;;;;;62.57;4.40;;;17.40;99.90;;;;;;5055163;28;20452;-64
2023/02/20 10:54:37;;;;;;;61.67;3.97;;;17.70;99.90;;;;;;5055089;28;20472;-63
2023/02/20 10:57:12;;;;;;;60.90;3.90;;;17.50;99.90;;;;;;5054921;28;20456;-64
2023/02/20 10:59:44;;;;;;;60.87;3.90;;;17.00;99.90;;;;;;5054916;28;20447;-63
2023/02/20 11:02:17;;;;;;;60.10;4.00;;;18.30;99.90;;;;;;5054778;28;20831;-61
2023/02/20 11:04:52;;;;;;;61.17;4.07;;;19.40;99.90;;;;;;5054799;28;20470;-64
2023/02/20 11:07:21;;;;;;;59.60;3.63;;;18.50;99.90;;;;;;5054670;28;20439;-64
2023/02/20 11:09:48;;;;;;;61.60;4.23;;;18.40;99.90;;;;;;5054343;28;20480;-63
2023/02/20 11:12:25;;;;;;;63.77;4.73;;;17.80;99.90;;;;;;5054591;28;20440;-65
2023/02/20 11:14:55;;;;;;;59.63;4.30;;;17.30;99.90;;;;;;5054496;28;20468;-61
2023/02/20 11:17:26;;;;;;;60.80;4.20;;;18.40;99.90;;;;;;5054298;28;20966;-61
2023/02/20 11:19:55;;;;;;;58.57;3.60;;;19.80;99.90;;;;;;5053986;28;20444;-62
2023/02/20 11:22:41;;;;;;;59.43;3.60;;;19.70;99.90;;;;;;5054264;28;20816;-62
2023/02/20 11:25:16;;;;;;;60.90;3.67;;;21.40;99.90;;;;;;5054617;28;20484;-63
2023/02/20 11:27:45;;;;;;;60.07;3.73;;;21.50;99.90;;;;;;5054470;28;20462;-65
2023/02/20 11:30:22;;;;;;;61.87;3.50;;;;;;;;;;5054011;28;20455;-63
2023/02/20 11:32:59;;;;;;;59.90;3.87;;;23.80;99.90;;;;;;5054009;28;20547;-62
2023/02/20 11:35:32;;;;;;;59.87;3.70;;;22.00;99.90;;;;;;5053681;28;20980;-63
2023/02/20 11:38:26;;;;;;;59.70;3.93;;;21.10;99.90;;;;;;5053112;28;20480;-63
2023/02/20 11:41:23;;;;;;;61.27;3.80;;;23.70;99.90;;;;;;5053648;28;20458;-62
2023/02/20 11:44:07;;;;;;;61.53;3.70;;;24.20;99.90;;;;;;5048681;28;20523;-62
2023/02/20 11:46:33;;;;;;;60.10;3.60;;;21.70;99.90;;;;;;5053953;28;20449;-62
2023/02/20 11:49:05;;;;;;;59.70;3.60;;;22.20;99.90;;;;;;5053461;28;20453;-63
2023/02/20 11:51:35;;;;;;;58.60;3.30;;;23.30;99.90;;;;;;5053653;28;20456;-63
2023/02/20 11:54:16;;;;;;;59.83;3.40;;;23.00;99.90;;;;;;5053619;28;20863;-63
2023/02/20 11:56:58;;;;;;;58.67;3.20;;;22.70;99.90;;;;;;5053830;28;20471;-63
2023/02/20 11:59:36;;;;;;;59.37;3.93;;;;;;;;;;5053374;28;20456;-65
2023/02/20 12:02:11;;;;;;;65.37;3.90;;;;;;;;;;5053623;28;20561;-62
2023/02/20 12:04:40;;;;;;;59.00;3.50;;;22.60;99.90;;;;;;5053171;28;20947;-62
2023/02/20 12:07:25;;;;;;;59.47;3.50;;;23.40;99.90;;;;;;5053410;28;20463;-63
2023/02/20 12:09:55;;;;;;;59.17;3.40;;;21.00;99.90;;;;;;5053151;28;20840;-65
2023/02/20 12:12:22;;;;;;;60.47;4.13;;;20.70;99.90;;;;;;5053509;28;20455;-64
2023/02/20 12:14:49;;;;;;;58.87;3.43;;;;;;;;;;5053272;28;20508;-64
2023/02/20 12:17:25;;;;;;;59.97;3.77;;;22.00;99.90;;;;;;5053363;28;20448;-63
2023/02/20 12:19:59;;;;;;;58.27;3.00;;;;;;;;;;5052663;28;20447;-64
2023/02/20 12:22:31;;;;;;;58.17;3.37;;;;;;;;;;5053116;28;20448;-64
2023/02/20 12:25:13;;;;;;;60.00;3.30;;;;;;;;;;5052904;28;20575;-64
2023/02/20 12:27:51;;;;;;;58.53;3.03;;;22.20;99.90;;;;;;5053050;28;20456;-61
2023/02/20 12:30:25;;;;;;;59.03;3.20;;;;;;;;;;5052492;28;20944;-62
2023/02/20 12:33:02;;;;;;;58.43;3.20;;;23.20;99.90;;;;;;5053257;28;20456;-63
2023/02/20 12:35:32;;;;;;;59.57;3.23;;;;;;;;;;5052631;28;20486;-63
2023/02/20 12:38:05;;;;;;;59.57;3.10;;;;;;;;;;5053092;28;20471;-63
2023/02/20 12:40:49;;;;;;;59.57;3.90;;;;;;;;;;5052656;28;20452;-64
2023/02/20 12:43:27;;;;;;;60.10;3.63;;;23.60;99.90;;;;;;5052786;28;20492;-64
2023/02/20 12:45:59;;;;;;;60.60;3.60;;;;;;;;;;5052485;28;20471;-63
2023/02/20 12:48:29;;;;;;;59.47;3.07;;;;;;;;;;5052318;28;20802;-63
2023/02/20 12:51:03;;;;;;;60.77;3.57;;;;;;;;;;5052679;28;20494;-63
2023/02/20 12:53:47;;;;;;;58.37;2.90;;;;;;;;;;5052775;28;20452;-63
2023/02/20 12:56:30;;;;;;;64.73;3.47;;;24.50;99.90;;;;;;5052393;28;20472;-65
2023/02/20 12:59:05;;;;;;;58.60;3.50;;;25.70;99.90;;;;;;5051964;28;20952;-64
2023/02/20 13:01:35;;;;;;;58.57;3.17;;;23.90;99.90;;;;;;5052538;28;20867;-64
2023/02/20 13:04:06;;;;;;;57.90;2.90;;;25.60;99.90;;;;;;5052000;28;20480;-65
2023/02/20 13:06:41;;;;;;;59.70;3.50;;;27.30;99.90;;;;;;5052343;28;20448;-67
2023/02/20 13:09:17;;;;;;;58.97;3.30;;;26.10;99.90;;;;;;5051906;28;20448;-66
2023/02/20 13:11:48;;;;;;;59.57;3.37;;;25.30;99.90;;;;;;5052383;28;20444;-67
2023/02/20 13:14:28;;;;;;;58.27;3.20;;;26.70;99.90;;;;;;5052393;28;20448;-66
2023/02/20 13:17:05;;;;;;;59.27;3.20;;;26.40;99.90;;;;;;5052277;28;20931;-66
2023/02/20 13:19:39;;;;;;;57.80;3.30;;;27.40;99.90;;;;;;5051702;28;20458;-66
2023/02/20 13:22:07;;;;;;;58.13;3.07;;;27.40;99.90;;;;;;5052564;28;20452;-66
2023/02/20 13:24:35;;;;;;;59.50;3.33;;;27.60;99.90;;;;;;5051815;28;20889;-64
2023/02/20 13:27:05;;;;;;;57.30;2.90;;;28.30;99.90;;;;;;5051803;28;20452;-64
2023/02/20 13:29:34;;;;;;;57.60;2.50;;;27.40;99.90;;;;;;5052058;28;20457;-65
2023/02/20 13:32:03;;;;;;;57.47;2.80;;;26.10;99.90;;;;;;5052029;28;20455;-67
2023/02/20 13:34:32;;;;;;;59.37;2.90;;;;;;;;;;5051733;28;20464;-66
2023/02/20 13:36:59;;;;;;;56.80;2.70;;;26.60;99.90;;;;;;5051658;28;20968;-66
2023/02/20 13:39:38;;;;;;;58.17;2.70;;;27.30;99.90;;;;;;5051945;28;20444;-66
2023/02/20 13:42:26;;;;;;;63.33;3.17;;;26.20;99.90;;;;;;5051979;28;20451;-66
2023/02/20 13:44:54;;;;;;;58.60;3.13;;;;;;;;;;5051727;28;20514;-66
2023/02/20 13:47:38;;;;;;;58.50;2.90;;;;;;;;;;5051541;28;20448;-66
2023/02/20 13:50:35;;;;;;;58.90;2.70;;;26.80;99.90;;;;;;5051441;28;20448;-66
2023/02/20 13:53:05;;;;;;;59.30;3.47;;;26.10;99.90;;;;;;5017147;28;20466;-66
2023/02/20 13:55:35;;;;;;;58.17;2.80;;;;;;;;;;5051463;28;20988;-66
2023/02/20 13:58:04;;;;;;;60.20;3.83;;;;;;;;;;5051585;28;20488;-66
2023/02/20 14:00:37;;;;;;;57.17;2.70;;;;;;;;;;5050734;28;20448;-66
2023/02/20 14:03:11;;;;;;;57.40;2.60;;;26.60;99.90;;;;;;5051957;28;20947;-66
2023/02/20 14:05:38;;;;;;;57.77;2.90;;;;;;;;;;5051416;28;20466;-66
2023/02/20 14:08:05;;;;;;;57.73;2.70;;;;;;;;;;5051496;28;20440;-65
2023/02/20 14:10:36;;;;;;;60.50;3.10;;;25.50;99.90;;;;;;5051310;28;20455;-65
2023/02/20 14:13:06;;;;;;;58.13;2.93;;;26.70;99.90;;;;;;5051800;28;20451;-65
2023/02/20 14:15:43;;;;;;;60.17;3.27;;;25.20;99.90;;;;;;5051490;28;20460;-65
2023/02/20 14:18:14;;;;;;;59.07;2.67;;;;;;;;;;5051106;28;20823;-65
2023/02/20 14:20:43;;;;;;;58.27;2.60;;;;;;;;;;5051220;28;20450;-65
2023/02/20 14:23:18;;;;;;;59.10;3.20;;;;;;;;;;5050984;28;20471;-65
2023/02/20 14:25:58;;;;;;;57.50;2.60;;;26.40;99.90;;;;;;5051141;28;20459;-66
2023/02/20 14:28:26;;;;;;;59.80;3.03;;;;;;;;;;5051230;28;20486;-65
2023/02/20 14:31:21;;;;;;;59.90;3.37;;;25.30;99.90;;;;;;5051117;28;20444;-66
2023/02/20 14:33:49;;;;;;;58.30;2.70;;;27.20;99.90;;;;;;5051089;28;20458;-63